createdAt,value
2018-01-13T00:00:38.049Z,150.33
2018-01-13T00:03:06.339Z,148.73
2018-01-13T00:05:33.871Z,146.83
2018-01-13T00:08:02.161Z,132.20
2018-01-13T00:10:29.730Z,127.05
2018-01-13T00:12:57.261Z,137.07
2018-01-13T00:15:24.801Z,141.80
2018-01-13T00:17:52.364Z,135.00
2018-01-13T00:20:19.885Z,127.20
2018-01-13T00:22:47.417Z,127.30
2018-01-13T00:25:14.949Z,140.90
2018-01-13T00:27:43.348Z,145.75
2018-01-13T00:30:10.864Z,141.13
2018-01-13T00:32:38.404Z,147.10
2018-01-13T00:35:05.936Z,134.70
2018-01-13T00:37:33.483Z,125.03
2018-01-13T00:40:01.768Z,136.25
2018-01-13T00:42:29.309Z,134.57
2018-01-13T00:44:56.838Z,134.43
2018-01-13T00:47:24.422Z,135.97
2018-01-13T00:49:51.935Z,138.03
2018-01-13T00:52:19.533Z,130.00
2018-01-13T00:54:47.055Z,124.97
2018-01-13T00:57:14.583Z,129.93
2018-01-13T00:59:42.100Z,133.77
2018-01-13T01:02:09.638Z,120.33
2018-01-13T01:04:37.248Z,131.57
2018-01-13T01:07:04.970Z,128.37
2018-01-13T01:09:32.517Z,123.22
2018-01-13T01:12:00.050Z,124.37
2018-01-13T01:14:27.597Z,119.50
2018-01-13T01:16:55.119Z,121.03
2018-01-13T01:19:22.992Z,125.50
2018-01-13T01:21:50.508Z,119.30
2018-01-13T01:24:18.090Z,112.67
2018-01-13T01:26:45.636Z,120.40
2018-01-13T01:29:13.181Z,113.83
2018-01-13T01:31:40.767Z,122.27
2018-01-13T01:34:08.406Z,106.40
2018-01-13T01:36:35.936Z,121.80
2018-01-13T01:39:03.489Z,125.97
2018-01-13T01:41:31.019Z,119.70
2018-01-13T01:43:58.571Z,116.57
2018-01-13T01:46:26.086Z,115.97
2018-01-13T01:48:53.640Z,118.10
2018-01-13T01:51:21.188Z,111.60
2018-01-13T01:53:48.707Z,128.20
2018-01-13T01:56:16.284Z,111.53
2018-01-13T01:58:43.821Z,125.37
2018-01-13T02:01:11.411Z,115.77
2018-01-13T02:03:39.698Z,122.77
2018-01-13T02:06:07.325Z,125.50
2018-01-13T02:08:35.603Z,131.03
2018-01-13T02:11:03.163Z,135.47
2018-01-13T02:13:30.683Z,131.05
2018-01-13T02:15:58.211Z,117.77
2018-01-13T02:18:26.497Z,117.97
2018-01-13T02:20:54.943Z,129.60
2018-01-13T02:23:23.235Z,127.27
2018-01-13T02:25:50.785Z,137.10
2018-01-13T02:28:18.325Z,125.85
2018-01-13T02:30:45.885Z,118.10
2018-01-13T02:33:13.529Z,132.17
2018-01-13T02:35:41.049Z,134.33
2018-01-13T02:38:08.621Z,129.27
2018-01-13T02:40:36.568Z,125.50
2018-01-13T02:43:04.137Z,139.45
2018-01-13T02:45:32.667Z,125.47
2018-01-13T02:48:00.328Z,140.10
2018-01-13T02:50:27.852Z,138.53
2018-01-13T02:52:55.391Z,141.30
2018-01-13T02:55:22.917Z,125.23
2018-01-13T02:57:50.469Z,125.67
2018-01-13T03:00:19.195Z,133.32
2018-01-13T03:02:47.612Z,142.67
2018-01-13T03:05:15.133Z,129.23
2018-01-13T03:07:43.428Z,128.93
2018-01-13T03:10:10.944Z,141.27
2018-01-13T03:12:39.421Z,135.97
2018-01-13T03:15:07.388Z,140.30
2018-01-13T03:17:35.183Z,142.00
2018-01-13T03:20:02.783Z,136.83
2018-01-13T03:22:30.310Z,139.80
2018-01-13T03:24:58.609Z,146.93
2018-01-13T03:27:26.201Z,144.80
2018-01-13T03:29:54.517Z,149.90
2018-01-13T03:32:22.083Z,130.77
2018-01-13T03:34:49.641Z,145.30
2018-01-13T03:37:17.166Z,143.93
2018-01-13T03:39:44.699Z,143.43
2018-01-13T03:42:12.237Z,144.70
2018-01-13T03:44:39.954Z,145.10
2018-01-13T03:47:07.482Z,144.10
2018-01-13T03:49:35.966Z,149.00
2018-01-13T03:52:03.524Z,148.00
2018-01-13T03:54:31.060Z,125.63
2018-01-13T03:56:58.617Z,143.70
2018-01-13T03:59:26.229Z,147.73
2018-01-13T04:01:54.526Z,141.33
2018-01-13T04:04:22.069Z,143.13
2018-01-13T04:06:49.603Z,141.43
2018-01-13T04:09:17.144Z,133.27
2018-01-13T04:11:44.671Z,138.73
2018-01-13T04:14:12.972Z,141.23
2018-01-13T04:16:40.519Z,135.57
2018-01-13T04:19:08.077Z,136.03
2018-01-13T04:21:37.740Z,148.17
2018-01-13T04:24:05.835Z,139.23
2018-01-13T04:26:33.581Z,138.07
2018-01-13T04:29:01.100Z,136.93
2018-01-13T04:31:28.665Z,134.63
2018-01-13T04:33:56.193Z,151.77
2018-01-13T04:36:23.723Z,138.13
2018-01-13T04:38:51.254Z,138.43
2018-01-13T04:41:18.790Z,129.60
2018-01-13T04:43:47.080Z,128.50
2018-01-13T04:46:14.667Z,131.23
2018-01-13T04:48:42.189Z,141.57
2018-01-13T04:51:09.748Z,139.77
2018-01-13T04:53:37.291Z,132.83
2018-01-13T04:56:04.919Z,125.83
2018-01-13T04:58:32.464Z,123.75
2018-01-13T05:00:59.983Z,126.13
2018-01-13T05:03:27.524Z,124.67
2018-01-13T05:05:56.503Z,131.75
2018-01-13T05:08:24.053Z,130.43
2018-01-13T05:10:51.582Z,127.97
2018-01-13T05:13:19.884Z,120.90
2018-01-13T05:15:47.402Z,117.37
2018-01-13T05:18:14.932Z,126.90
2018-01-13T05:20:42.477Z,118.93
2018-01-13T05:23:10.875Z,113.33
2018-01-13T05:25:38.392Z,116.15
2018-01-13T05:28:06.047Z,125.10
2018-01-13T05:30:33.583Z,129.90
2018-01-13T05:33:01.120Z,106.23
2018-01-13T05:35:29.467Z,117.10
2018-01-13T05:37:57.786Z,115.82
2018-01-13T05:40:25.332Z,117.37
2018-01-13T05:42:53.122Z,105.70
2018-01-13T05:45:20.650Z,109.87
2018-01-13T05:47:48.170Z,124.63
2018-01-13T05:50:15.808Z,108.33
2018-01-13T05:52:43.332Z,99.83
2018-01-13T05:55:11.813Z,104.07
2018-01-13T05:57:39.345Z,106.27
2018-01-13T06:00:06.891Z,93.72
2018-01-13T06:02:35.779Z,98.43
2018-01-13T06:05:04.928Z,102.27
2018-01-13T06:07:32.519Z,99.80
2018-01-13T06:10:00.069Z,106.13
2018-01-13T06:12:27.612Z,93.43
2018-01-13T06:14:55.168Z,101.17
2018-01-13T06:17:22.743Z,95.10
2018-01-13T06:19:51.048Z,96.97
2018-01-13T06:22:18.581Z,86.17
2018-01-13T06:24:46.136Z,92.93
2018-01-13T06:27:13.699Z,89.07
2018-01-13T06:29:41.235Z,95.78
2018-01-13T06:32:08.821Z,87.23
2018-01-13T06:34:36.372Z,80.73
2018-01-13T06:37:04.780Z,88.63
2018-01-13T06:39:32.308Z,82.47
2018-01-13T06:42:00.668Z,83.12
2018-01-13T06:44:28.204Z,88.27
2018-01-13T06:46:55.752Z,84.33
2018-01-13T06:49:23.277Z,72.40
2018-01-13T06:51:51.569Z,75.40
2018-01-13T06:54:19.102Z,77.27
2018-01-13T06:56:46.644Z,73.15
2018-01-13T06:59:14.188Z,76.13
2018-01-13T07:01:41.781Z,82.77
2018-01-13T07:04:09.389Z,71.73
2018-01-13T07:06:36.927Z,76.50
2018-01-13T07:09:04.465Z,73.30
2018-01-13T07:11:32.000Z,79.30
2018-01-13T07:14:01.427Z,73.57
2018-01-13T07:16:28.992Z,76.67
2018-01-13T07:18:56.539Z,75.20
2018-01-13T07:21:24.051Z,69.13
2018-01-13T07:23:51.593Z,67.17
2018-01-13T07:26:19.153Z,62.40
2018-01-13T07:28:46.794Z,64.87
2018-01-13T07:31:14.648Z,69.57
2018-01-13T07:33:42.196Z,61.83
2018-01-13T07:36:09.736Z,60.20
2018-01-13T07:38:37.281Z,63.40
2018-01-13T07:41:05.049Z,58.07
2018-01-13T07:43:32.564Z,63.23
2018-01-13T07:46:00.087Z,62.90
2018-01-13T07:48:27.598Z,53.10
2018-01-13T07:50:55.121Z,58.97
2018-01-13T07:53:22.668Z,55.07
2018-01-13T07:55:50.200Z,52.60
2018-01-13T07:58:17.737Z,50.07
2018-01-13T08:00:45.271Z,51.03
2018-01-13T08:03:12.801Z,51.40
2018-01-13T08:05:40.359Z,95.45
2018-01-13T08:08:07.898Z,53.70
2018-01-13T08:10:35.639Z,48.77
2018-01-13T08:13:03.660Z,48.83
2018-01-13T08:15:31.190Z,44.13
2018-01-13T08:17:58.712Z,47.27
2018-01-13T08:20:26.255Z,46.97
2018-01-13T08:22:53.796Z,50.10
2018-01-13T08:25:21.316Z,49.00
2018-01-13T08:27:48.847Z,40.33
2018-01-13T08:30:16.395Z,42.37
2018-01-13T08:32:43.948Z,42.83
2018-01-13T08:35:11.475Z,39.77
2018-01-13T08:37:39.860Z,43.10
2018-01-13T08:40:07.501Z,46.33
2018-01-13T08:42:35.052Z,44.40
2018-01-13T08:45:02.589Z,40.10
2018-01-13T08:47:30.141Z,40.80
2018-01-13T08:49:57.791Z,46.10
2018-01-13T08:52:25.360Z,43.40
2018-01-13T08:54:52.888Z,39.90
2018-01-13T08:57:20.466Z,44.77
2018-01-13T08:59:47.963Z,39.80
2018-01-13T09:02:15.500Z,40.60
2018-01-13T09:04:43.021Z,40.67
2018-01-13T09:07:11.367Z,41.73
2018-01-13T09:09:38.890Z,42.50
2018-01-13T09:12:06.526Z,45.35
2018-01-13T09:14:34.053Z,41.00
2018-01-13T09:17:01.577Z,43.67
2018-01-13T09:19:29.153Z,39.07
2018-01-13T09:21:56.667Z,45.03
2018-01-13T09:24:24.968Z,42.10
2018-01-13T09:26:52.493Z,41.33
2018-01-13T09:29:20.035Z,35.73
2018-01-13T09:31:47.604Z,39.07
2018-01-13T09:34:15.477Z,39.00
2018-01-13T09:36:43.030Z,34.20
2018-01-13T09:39:10.645Z,38.30
2018-01-13T09:41:38.173Z,39.53
2018-01-13T09:44:05.754Z,38.50
2018-01-13T09:46:34.075Z,37.30
2018-01-13T09:49:02.353Z,36.43
2018-01-13T09:51:29.923Z,36.93
2018-01-13T09:53:57.476Z,36.80
2018-01-13T09:56:25.017Z,36.07
2018-01-13T09:58:52.565Z,37.53
2018-01-13T10:01:20.115Z,35.22
2018-01-13T10:03:47.645Z,38.07
2018-01-13T10:06:16.683Z,38.42
2018-01-13T10:08:44.195Z,31.37
2018-01-13T10:11:12.497Z,38.13
2018-01-13T10:13:40.032Z,35.30
2018-01-13T10:16:08.856Z,34.30
2018-01-13T10:18:37.200Z,35.03
2018-01-13T10:21:04.781Z,33.65
2018-01-13T10:23:33.153Z,34.00
2018-01-13T10:26:02.279Z,37.00
2018-01-13T10:28:29.787Z,32.20
2018-01-13T10:30:57.303Z,39.60
2018-01-13T10:33:24.836Z,44.97
2018-01-13T10:35:52.364Z,38.38
2018-01-13T10:38:19.915Z,39.43
2018-01-13T10:40:47.459Z,33.30
2018-01-13T10:43:15.018Z,37.33
2018-01-13T10:45:42.541Z,41.30
2018-01-13T10:48:11.000Z,42.50
2018-01-13T10:50:38.535Z,37.30
2018-01-13T10:53:06.132Z,39.53
2018-01-13T10:55:33.740Z,38.60
2018-01-13T10:58:02.077Z,42.25
2018-01-13T11:00:29.632Z,42.90
2018-01-13T11:02:57.176Z,38.50
2018-01-13T11:05:24.747Z,43.27
2018-01-13T11:07:53.084Z,44.10
2018-01-13T11:10:20.744Z,45.10
2018-01-13T11:12:48.265Z,42.50
2018-01-13T11:15:16.398Z,46.27
2018-01-13T11:17:44.110Z,37.90
2018-01-13T11:20:12.545Z,38.97
2018-01-13T11:22:40.085Z,39.77
2018-01-13T11:25:07.641Z,35.47
2018-01-13T11:27:35.250Z,43.13
2018-01-13T11:30:02.849Z,40.33
2018-01-13T11:32:31.397Z,41.93
2018-01-13T11:34:59.555Z,57.42
2018-01-13T11:37:28.377Z,44.27
2018-01-13T11:39:57.571Z,39.80
2018-01-13T11:42:25.112Z,35.40
2018-01-13T11:44:53.418Z,34.23
2018-01-13T11:47:21.508Z,32.53
2018-01-13T11:49:49.042Z,34.37
2018-01-13T11:52:17.382Z,40.95
2018-01-13T11:54:44.934Z,38.20
2018-01-13T11:57:12.490Z,34.47
2018-01-13T11:59:40.728Z,37.28
2018-01-13T12:02:08.413Z,42.23
2018-01-13T12:04:35.987Z,34.10
2018-01-13T12:07:03.644Z,31.33
2018-01-13T12:09:31.181Z,36.50
2018-01-13T12:11:59.600Z,32.73
2018-01-13T12:14:27.924Z,33.13
2018-01-13T12:16:56.145Z,34.87
2018-01-13T12:19:25.738Z,32.07
2018-01-13T12:21:53.339Z,31.30
2018-01-13T12:24:20.961Z,33.37
2018-01-13T12:26:48.608Z,33.93
2018-01-13T12:29:19.885Z,34.40
2018-01-13T12:31:47.435Z,31.42
2018-01-13T12:34:16.716Z,37.17
2018-01-13T12:36:45.512Z,37.67
2018-01-13T12:39:13.908Z,28.63
2018-01-13T12:41:41.453Z,36.37
2018-01-13T12:44:09.233Z,30.67
2018-01-13T12:46:36.849Z,30.23
2018-01-13T12:49:04.420Z,33.83
2018-01-13T12:51:31.999Z,30.73
2018-01-13T12:53:59.542Z,31.08
2018-01-13T12:56:27.685Z,36.30
2018-01-13T12:58:56.242Z,35.00
2018-01-13T13:01:23.764Z,39.77
2018-01-13T13:03:52.067Z,42.07
2018-01-13T13:06:20.375Z,38.93
2018-01-13T13:08:47.927Z,40.00
2018-01-13T13:11:15.590Z,39.73
2018-01-13T13:13:43.155Z,36.40
2018-01-13T13:16:10.756Z,33.70
2018-01-13T13:18:39.333Z,38.70
2018-01-13T13:21:08.097Z,37.77
2018-01-13T13:23:35.800Z,37.53
2018-01-13T13:26:04.378Z,31.27
2018-01-13T13:28:31.936Z,33.78
2018-01-13T13:30:59.609Z,33.90
2018-01-13T13:33:28.133Z,33.90
2018-01-13T13:35:55.680Z,37.30
2018-01-13T13:38:23.992Z,34.23
2018-01-13T13:40:51.528Z,36.08
2018-01-13T13:43:19.885Z,30.70
2018-01-13T13:45:47.626Z,34.30
2018-01-13T13:48:15.996Z,29.23
2018-01-13T13:50:44.198Z,30.20
2018-01-13T13:53:12.491Z,49.43
2018-01-13T13:55:41.143Z,25.63
2018-01-13T13:58:08.906Z,30.07
2018-01-13T14:00:36.871Z,29.40
2018-01-13T14:03:04.431Z,22.77
2018-01-13T14:05:32.002Z,25.40
2018-01-13T14:07:59.583Z,25.00
2018-01-13T14:10:27.160Z,20.60
2018-01-13T14:12:55.559Z,27.40
2018-01-13T14:15:23.109Z,23.03
2018-01-13T14:17:50.713Z,24.70
2018-01-13T14:20:18.603Z,24.97
2018-01-13T14:22:46.249Z,24.03
2018-01-13T14:25:14.070Z,32.90
2018-01-13T14:27:41.728Z,20.00
2018-01-13T14:30:10.025Z,19.03
2018-01-13T14:32:38.503Z,22.70
2018-01-13T14:35:06.241Z,21.57
2018-01-13T14:37:33.847Z,19.23
2018-01-13T14:40:01.454Z,24.93
2018-01-13T14:42:30.008Z,25.23
2018-01-13T14:44:57.572Z,19.90
2018-01-13T14:47:25.209Z,21.97
2018-01-13T14:49:52.891Z,25.67
2018-01-13T14:52:20.595Z,22.53
2018-01-13T14:54:48.915Z,21.97
2018-01-13T14:57:16.462Z,19.43
2018-01-13T14:59:44.000Z,20.37
2018-01-13T15:02:11.674Z,19.57
2018-01-13T15:04:40.036Z,28.25
2018-01-13T15:07:07.791Z,27.70
2018-01-13T15:09:35.401Z,22.73
2018-01-13T15:12:02.971Z,39.33
2018-01-13T15:14:30.573Z,34.37
2018-01-13T15:16:58.173Z,24.07
2018-01-13T15:19:25.888Z,28.40
2018-01-13T15:21:53.459Z,22.37
2018-01-13T15:24:21.009Z,23.70
2018-01-13T15:26:48.606Z,24.13
2018-01-13T15:29:16.999Z,21.53
2018-01-13T15:31:44.741Z,24.87
2018-01-13T15:34:12.309Z,24.40
2018-01-13T15:36:39.951Z,19.05
2018-01-13T15:39:08.383Z,27.80
2018-01-13T15:41:35.960Z,22.87
2018-01-13T15:44:03.611Z,25.27
2018-01-13T15:46:31.151Z,23.98
2018-01-13T15:48:58.729Z,29.33
2018-01-13T15:51:26.257Z,24.80
2018-01-13T15:53:54.382Z,23.27
2018-01-13T15:56:21.921Z,25.83
2018-01-13T15:58:49.481Z,25.40
2018-01-13T16:01:18.310Z,23.30
2018-01-13T16:03:46.623Z,23.90
2018-01-13T16:06:16.293Z,25.33
2018-01-13T16:08:43.837Z,26.20
2018-01-13T16:11:11.452Z,28.50
2018-01-13T16:13:39.050Z,24.50
2018-01-13T16:16:07.111Z,23.83
2018-01-13T16:18:34.696Z,28.77
2018-01-13T16:21:02.398Z,21.57
2018-01-13T16:23:29.939Z,25.42
2018-01-13T16:25:57.484Z,24.50
2018-01-13T16:28:26.016Z,25.87
2018-01-13T16:30:53.699Z,28.30
2018-01-13T16:33:21.844Z,30.70
2018-01-13T16:35:49.445Z,36.78
2018-01-13T16:38:16.961Z,31.70
2018-01-13T16:40:44.509Z,30.27
2018-01-13T16:43:12.025Z,29.90
2018-01-13T16:45:39.583Z,28.27
2018-01-13T16:48:07.133Z,31.67
2018-01-13T16:50:34.778Z,30.47
2018-01-13T16:53:02.325Z,30.47
2018-01-13T16:55:29.846Z,31.80
2018-01-13T16:57:57.411Z,35.15
2018-01-13T17:00:25.202Z,32.13
2018-01-13T17:02:52.809Z,28.80
2018-01-13T17:05:20.346Z,35.20
2018-01-13T17:07:48.891Z,34.78
2018-01-13T17:10:16.462Z,35.03
2018-01-13T17:12:44.050Z,38.63
2018-01-13T17:15:12.340Z,41.77
2018-01-13T17:17:39.897Z,38.87
2018-01-13T17:20:07.437Z,38.58
2018-01-13T17:22:34.988Z,38.50
2018-01-13T17:25:02.520Z,37.35
2018-01-13T17:27:30.064Z,39.07
2018-01-13T17:29:58.408Z,38.80
2018-01-13T17:32:26.683Z,35.37
2018-01-13T17:34:54.241Z,40.50
2018-01-13T17:37:21.784Z,31.90
2018-01-13T17:39:49.365Z,62.23
2018-01-13T17:42:16.990Z,35.50
2018-01-13T17:44:44.558Z,32.90
2018-01-13T17:47:12.081Z,38.07
2018-01-13T17:49:40.143Z,34.20
2018-01-13T17:52:07.993Z,33.60
2018-01-13T17:54:36.663Z,32.77
2018-01-13T17:57:04.264Z,29.67
2018-01-13T17:59:32.724Z,23.80
2018-01-13T18:02:01.143Z,25.00
2018-01-13T18:04:28.700Z,25.75
2018-01-13T18:06:56.208Z,24.58
2018-01-13T18:09:23.749Z,27.03
2018-01-13T18:11:51.274Z,28.93
2018-01-13T18:14:19.599Z,24.87
2018-01-13T18:16:47.142Z,24.10
2018-01-13T18:19:14.686Z,25.97
2018-01-13T18:21:42.225Z,25.43
2018-01-13T18:24:09.751Z,24.87
2018-01-13T18:26:37.328Z,25.70
2018-01-13T18:29:04.931Z,24.30
2018-01-13T18:31:32.503Z,25.97
2018-01-13T18:34:00.046Z,28.53
2018-01-13T18:36:27.620Z,29.80
2018-01-13T18:38:56.251Z,34.10
2018-01-13T18:41:23.786Z,34.13
2018-01-13T18:43:51.337Z,30.17
2018-01-13T18:46:19.891Z,29.53
2018-01-13T18:48:47.430Z,34.00
2018-01-13T18:51:15.399Z,39.93
2018-01-13T18:53:42.953Z,34.13
2018-01-13T18:56:10.485Z,32.40
2018-01-13T18:58:39.241Z,36.60
2018-01-13T19:01:08.382Z,34.30
2018-01-13T19:03:35.955Z,31.23
2018-01-13T19:06:04.242Z,34.25
2018-01-13T19:08:31.790Z,28.67
2018-01-13T19:10:59.344Z,32.77
2018-01-13T19:13:26.884Z,35.57
2018-01-13T19:15:54.419Z,31.83
2018-01-13T19:18:22.015Z,34.43
2018-01-13T19:20:49.649Z,32.30
2018-01-13T19:23:18.806Z,37.77
2018-01-13T19:25:46.333Z,29.43
2018-01-13T19:28:14.505Z,30.37
2018-01-13T19:30:42.018Z,28.80
2018-01-13T19:33:09.572Z,32.27
2018-01-13T19:35:37.113Z,25.13
2018-01-13T19:38:04.712Z,26.70
2018-01-13T19:40:33.021Z,29.47
2018-01-13T19:43:00.544Z,30.17
2018-01-13T19:45:28.856Z,28.53
2018-01-13T19:47:56.380Z,27.57
2018-01-13T19:50:23.970Z,32.80
2018-01-13T19:52:51.588Z,33.93
2018-01-13T19:55:19.142Z,28.00
2018-01-13T19:57:46.677Z,28.20
2018-01-13T20:00:14.300Z,29.47
2018-01-13T20:02:41.951Z,28.63
2018-01-13T20:05:09.544Z,23.10
2018-01-13T20:07:37.854Z,30.53
2018-01-13T20:10:05.397Z,26.58
2018-01-13T20:12:32.928Z,27.23
2018-01-13T20:15:01.240Z,27.73
2018-01-13T20:17:28.773Z,29.00
2018-01-13T20:19:56.315Z,28.00
2018-01-13T20:22:24.474Z,29.90
2018-01-13T20:24:52.226Z,26.47
2018-01-13T20:27:19.773Z,33.37
2018-01-13T20:29:47.349Z,32.60
2018-01-13T20:32:15.640Z,34.30
2018-01-13T20:34:43.184Z,31.53
2018-01-13T20:37:10.732Z,29.23
2018-01-13T20:39:38.514Z,36.17
2018-01-13T20:42:06.163Z,28.38
2018-01-13T20:44:33.685Z,33.83
2018-01-13T20:47:01.221Z,37.92
2018-01-13T20:49:28.739Z,31.33
2018-01-13T20:51:57.049Z,35.92
2018-01-13T20:54:24.572Z,35.70
2018-01-13T20:56:52.096Z,37.13
2018-01-13T20:59:20.378Z,33.03
2018-01-13T21:01:47.909Z,34.43
2018-01-13T21:04:16.197Z,32.57
2018-01-13T21:06:43.749Z,34.47
2018-01-13T21:09:11.268Z,31.60
2018-01-13T21:11:38.829Z,34.13
2018-01-13T21:14:06.700Z,31.00
2018-01-13T21:16:34.231Z,35.60
2018-01-13T21:19:01.797Z,33.90
2018-01-13T21:21:29.335Z,31.40
2018-01-13T21:23:56.993Z,32.53
2018-01-13T21:26:24.534Z,35.60
2018-01-13T21:28:52.058Z,26.70
2018-01-13T21:31:19.580Z,29.50
2018-01-13T21:33:47.888Z,31.40
2018-01-13T21:36:15.408Z,39.35
2018-01-13T21:38:42.948Z,34.50
2018-01-13T21:41:11.374Z,38.20
2018-01-13T21:43:39.684Z,39.17
2018-01-13T21:46:08.500Z,36.77
2018-01-13T21:48:36.100Z,31.20
2018-01-13T21:51:03.752Z,36.30
2018-01-13T21:53:31.283Z,36.47
2018-01-13T21:55:58.803Z,31.95
2018-01-13T21:58:27.109Z,40.47
2018-01-13T22:00:54.619Z,35.37
2018-01-13T22:03:22.166Z,30.90
2018-01-13T22:05:49.740Z,33.07
2018-01-13T22:08:17.275Z,32.80
2018-01-13T22:10:44.829Z,38.40
2018-01-13T22:13:12.418Z,36.13
2018-01-13T22:15:40.784Z,34.13
2018-01-13T22:18:09.137Z,35.70
2018-01-13T22:20:36.659Z,36.97
2018-01-13T22:23:04.168Z,39.00
2018-01-13T22:25:31.744Z,38.87
2018-01-13T22:27:59.255Z,33.47
2018-01-13T22:30:26.792Z,33.83
2018-01-13T22:32:54.308Z,36.50
2018-01-13T22:35:22.621Z,35.10
2018-01-13T22:37:50.169Z,32.53
2018-01-13T22:40:17.812Z,38.77
2018-01-13T22:42:45.357Z,38.30
2018-01-13T22:45:13.875Z,35.22
2018-01-13T22:47:42.185Z,39.40
2018-01-13T22:50:09.726Z,39.17
2018-01-13T22:52:37.243Z,34.40
2018-01-13T22:55:04.789Z,34.90
2018-01-13T22:57:32.326Z,39.27
2018-01-13T22:59:59.845Z,33.00
2018-01-13T23:02:28.144Z,38.10
2018-01-13T23:04:55.671Z,44.17
2018-01-13T23:07:23.977Z,33.83
2018-01-13T23:09:51.599Z,39.03
2018-01-13T23:12:19.149Z,37.67
2018-01-13T23:14:46.665Z,35.90
2018-01-13T23:17:15.849Z,37.40
2018-01-13T23:19:44.127Z,38.80
2018-01-13T23:22:11.667Z,34.03
2018-01-13T23:24:39.190Z,36.67
2018-01-13T23:27:19.339Z,38.97
2018-01-13T23:29:47.692Z,41.07
2018-01-13T23:32:15.988Z,39.87
2018-01-13T23:34:43.512Z,40.73
2018-01-13T23:37:11.112Z,39.97
2018-01-13T23:39:38.632Z,42.53
2018-01-13T23:42:06.160Z,35.93
2018-01-13T23:44:33.702Z,35.53
2018-01-13T23:47:01.220Z,34.10
2018-01-13T23:49:29.528Z,41.37
2018-01-13T23:51:58.795Z,38.57
2018-01-13T23:54:26.328Z,39.07
2018-01-13T23:56:53.850Z,35.70
2018-01-13T23:59:22.168Z,38.40
